createdAt,value
2023-04-01T00:00:40.899Z,86.72
2023-04-01T00:01:40.872Z,86.52
2023-04-01T00:02:40.941Z,86.42
2023-04-01T00:03:40.917Z,86.42
2023-04-01T00:04:40.910Z,86.52
2023-04-01T00:05:40.837Z,86.83
2023-04-01T00:06:40.845Z,86.72
2023-04-01T00:07:40.799Z,86.83
2023-04-01T00:08:40.818Z,86.83
2023-04-01T00:09:40.778Z,86.72
2023-04-01T00:10:40.790Z,86.68
2023-04-01T00:11:40.760Z,86.58
2023-04-01T00:12:40.792Z,86.58
2023-04-01T00:13:40.740Z,86.38
2023-04-01T00:14:40.764Z,86.17
2023-04-01T00:15:40.712Z,85.97
2023-04-01T00:16:40.755Z,85.86
2023-04-01T00:17:40.745Z,85.97
2023-04-01T00:18:40.699Z,85.62
2023-04-01T00:19:40.672Z,85.72
2023-04-01T00:20:40.679Z,85.93
2023-04-01T00:21:40.658Z,85.62
2023-04-01T00:22:40.667Z,85.41
2023-04-01T00:23:40.630Z,85.82
2023-04-01T00:24:40.653Z,85.52
2023-04-01T00:25:40.618Z,85.21
2023-04-01T00:26:40.610Z,85.21
2023-04-01T00:27:40.586Z,85.11
2023-04-01T00:28:40.603Z,85.00
2023-04-01T00:29:40.564Z,85.00
2023-04-01T00:30:40.573Z,84.69
2023-04-01T00:31:40.582Z,84.66
2023-04-01T00:32:40.628Z,84.55
2023-04-01T00:33:40.539Z,84.25
2023-04-01T00:34:40.541Z,84.04
2023-04-01T00:35:40.499Z,84.14
2023-04-01T00:36:40.542Z,84.14
2023-04-01T00:37:40.492Z,83.73
2023-04-01T00:38:40.524Z,83.83
2023-04-01T00:39:40.457Z,83.83
2023-04-01T00:40:40.484Z,83.73
2023-04-01T00:41:40.448Z,83.63
2023-04-01T00:42:40.443Z,83.22
2023-04-01T00:43:40.445Z,83.53
2023-04-01T00:44:40.454Z,83.32
2023-04-01T00:45:40.413Z,83.01
2023-04-01T00:46:40.429Z,83.12
2023-04-01T00:47:40.480Z,82.87
2023-04-01T00:48:40.400Z,82.77
2023-04-01T00:49:40.371Z,82.36
2023-04-01T00:50:40.371Z,82.46
2023-04-01T00:51:40.349Z,82.26
2023-04-01T00:52:40.337Z,81.85
2023-04-01T00:53:40.314Z,81.34
2023-04-01T00:54:40.330Z,81.23
2023-04-01T00:55:40.295Z,81.34
2023-04-01T00:56:40.300Z,81.74
2023-04-01T00:57:40.282Z,82.15
2023-04-01T00:58:40.294Z,81.85
2023-04-01T00:59:40.247Z,81.74
2023-04-01T01:00:40.341Z,81.95
2023-04-01T01:01:40.224Z,82.15
2023-04-01T01:02:40.443Z,82.05
2023-04-01T01:03:40.223Z,82.36
2023-04-01T01:04:40.222Z,81.95
2023-04-01T01:05:48.687Z,82.05
2023-04-01T01:06:40.209Z,81.85
2023-04-01T01:07:40.182Z,81.13
2023-04-01T01:08:40.148Z,81.13
2023-04-01T01:09:40.201Z,81.54
2023-04-01T01:10:40.150Z,81.13
2023-04-01T01:11:43.648Z,81.13
2023-04-01T01:12:40.105Z,81.02
2023-04-01T01:13:40.129Z,81.23
2023-04-01T01:14:40.088Z,81.34
2023-04-01T01:15:40.119Z,81.43
2023-04-01T01:16:40.162Z,81.43
2023-04-01T01:17:40.128Z,81.64
2023-04-01T01:18:40.059Z,81.74
2023-04-01T01:19:40.058Z,81.43
2023-04-01T01:20:40.052Z,81.54
2023-04-01T01:21:40.025Z,81.23
2023-04-01T01:22:40.014Z,81.43
2023-04-01T01:23:40.018Z,81.34
2023-04-01T01:24:39.982Z,81.43
2023-04-01T01:25:39.997Z,81.64
2023-04-01T01:26:39.975Z,81.54
2023-04-01T01:27:39.972Z,81.74
2023-04-01T01:28:39.930Z,81.64
2023-04-01T01:29:39.959Z,81.23
2023-04-01T01:30:39.962Z,81.13
2023-04-01T01:31:39.914Z,81.23
2023-04-01T01:32:39.968Z,80.72
2023-04-01T01:33:39.918Z,81.23
2023-04-01T01:34:39.868Z,81.02
2023-04-01T01:35:39.903Z,81.34
2023-04-01T01:36:39.854Z,81.02
2023-04-01T01:37:39.855Z,81.13
2023-04-01T01:38:39.823Z,81.64
2023-04-01T01:39:39.829Z,81.23
2023-04-01T01:40:39.800Z,81.43
2023-04-01T01:41:39.832Z,80.72
2023-04-01T01:42:39.800Z,80.72
2023-04-01T01:43:39.797Z,80.62
2023-04-01T01:44:39.755Z,80.72
2023-04-01T01:45:39.780Z,80.51
2023-04-01T01:46:39.786Z,80.72
2023-04-01T01:47:39.794Z,80.41
2023-04-01T01:48:39.713Z,80.62
2023-04-01T01:49:39.721Z,80.62
2023-04-01T01:50:39.691Z,80.92
2023-04-01T01:51:39.726Z,80.62
2023-04-01T01:52:39.687Z,80.92
2023-04-01T01:53:39.678Z,80.92
2023-04-01T01:54:39.649Z,80.72
2023-04-01T01:55:39.669Z,80.82
2023-04-01T01:56:39.637Z,80.92
2023-04-01T01:57:39.652Z,80.82
2023-04-01T01:58:39.601Z,80.96
2023-04-01T01:59:39.624Z,81.16
2023-04-01T02:00:39.581Z,81.27
2023-04-01T02:01:39.622Z,81.68
2023-04-01T02:02:39.585Z,81.48
2023-04-01T02:03:39.582Z,81.37
2023-04-01T02:04:39.594Z,81.37
2023-04-01T02:05:39.549Z,81.37
2023-04-01T02:06:39.525Z,81.37
2023-04-01T02:07:39.528Z,81.37
2023-04-01T02:08:39.500Z,81.37
2023-04-01T02:09:39.515Z,81.48
2023-04-01T02:10:39.480Z,81.37
2023-04-01T02:11:39.481Z,80.96
2023-04-01T02:12:39.453Z,80.86
2023-04-01T02:13:39.485Z,80.86
2023-04-01T02:14:39.434Z,81.16
2023-04-01T02:15:39.464Z,80.86
2023-04-01T02:16:39.416Z,80.35
2023-04-01T02:17:39.442Z,80.35
2023-04-01T02:18:39.388Z,80.55
2023-04-01T02:19:39.412Z,80.24
2023-04-01T02:20:39.387Z,80.14
2023-04-01T02:21:39.386Z,80.04
2023-04-01T02:22:39.354Z,80.04
2023-04-01T02:23:39.379Z,79.93
2023-04-01T02:24:39.323Z,79.49
2023-04-01T02:25:39.328Z,79.59
2023-04-01T02:26:39.298Z,79.28
2023-04-01T02:27:39.324Z,79.18
2023-04-01T02:28:39.286Z,79.38
2023-04-01T02:29:39.310Z,79.08
2023-04-01T02:30:39.262Z,79.08
2023-04-01T02:31:39.293Z,79.28
2023-04-01T02:32:39.310Z,79.38
2023-04-01T02:33:39.243Z,79.49
2023-04-01T02:34:39.244Z,79.08
2023-04-01T02:35:39.242Z,79.38
2023-04-01T02:36:39.198Z,78.67
2023-04-01T02:37:40.417Z,78.87
2023-04-01T02:38:39.168Z,78.77
2023-04-01T02:39:39.198Z,78.87
2023-04-01T02:40:39.158Z,78.77
2023-04-01T02:41:39.151Z,78.67
2023-04-01T02:42:39.133Z,78.87
2023-04-01T02:43:39.145Z,79.18
2023-04-01T02:44:39.116Z,78.87
2023-04-01T02:45:39.125Z,79.08
2023-04-01T02:46:39.129Z,79.28
2023-04-01T02:47:39.149Z,79.08
2023-04-01T02:48:39.089Z,78.67
2023-04-01T02:49:39.093Z,78.67
2023-04-01T02:50:39.042Z,78.77
2023-04-01T02:51:39.061Z,78.56
2023-04-01T02:52:39.045Z,78.77
2023-04-01T02:53:39.030Z,78.77
2023-04-01T02:54:39.008Z,78.97
2023-04-01T02:55:39.007Z,78.46
2023-04-01T02:56:39.004Z,78.56
2023-04-01T02:57:38.984Z,78.56
2023-04-01T02:58:38.972Z,78.67
2023-04-01T02:59:38.969Z,78.97
2023-04-01T03:00:38.938Z,78.56
2023-04-01T03:01:38.989Z,78.67
2023-04-01T03:02:38.990Z,78.25
2023-04-01T03:03:38.962Z,78.67
2023-04-01T03:04:38.891Z,78.56
2023-04-01T03:05:38.900Z,78.46
2023-04-01T03:06:38.878Z,78.77
2023-04-01T03:07:38.902Z,78.56
2023-04-01T03:08:38.857Z,78.36
2023-04-01T03:09:38.861Z,77.84
2023-04-01T03:10:38.829Z,78.05
2023-04-01T03:11:38.833Z,78.25
2023-04-01T03:12:38.809Z,78.46
2023-04-01T03:13:38.837Z,78.05
2023-04-01T03:14:38.797Z,78.25
2023-04-01T03:15:38.802Z,78.56
2023-04-01T03:16:38.810Z,78.25
2023-04-01T03:17:38.806Z,78.25
2023-04-01T03:18:38.751Z,78.05
2023-04-01T03:19:38.744Z,77.64
2023-04-01T03:20:38.719Z,77.74
2023-04-01T03:21:38.732Z,77.84
2023-04-01T03:22:40.252Z,77.84
2023-04-01T03:23:38.707Z,77.74
2023-04-01T03:24:38.675Z,77.64
2023-04-01T03:25:38.727Z,77.95
2023-04-01T03:26:38.661Z,78.05
2023-04-01T03:27:38.665Z,78.05
2023-04-01T03:28:38.632Z,77.84
2023-04-01T03:29:38.692Z,77.84
2023-04-01T03:30:38.639Z,77.95
2023-04-01T03:31:38.627Z,77.74
2023-04-01T03:32:38.620Z,77.95
2023-04-01T03:33:38.598Z,78.05
2023-04-01T03:34:38.561Z,77.95
2023-04-01T03:35:38.598Z,78.16
2023-04-01T03:36:38.588Z,78.16
2023-04-01T03:37:38.568Z,78.25
2023-04-01T03:38:38.522Z,78.25
2023-04-01T03:39:38.539Z,78.05
2023-04-01T03:40:38.494Z,78.25
2023-04-01T03:41:38.544Z,78.05
2023-04-01T03:42:38.497Z,78.05
2023-04-01T03:43:38.483Z,77.95
2023-04-01T03:44:38.465Z,77.84
2023-04-01T03:45:38.483Z,78.25
2023-04-01T03:46:38.513Z,78.05
2023-04-01T03:47:38.471Z,78.16
2023-04-01T03:48:38.409Z,77.74
2023-04-01T03:49:38.423Z,77.84
2023-04-01T03:50:38.398Z,78.05
2023-04-01T03:51:38.411Z,77.95
2023-04-01T03:52:38.379Z,77.74
2023-04-01T03:53:38.397Z,77.44
2023-04-01T03:54:38.376Z,77.23
2023-04-01T03:55:38.367Z,77.23
2023-04-01T03:56:38.338Z,77.33
2023-04-01T03:57:38.354Z,77.54
2023-04-01T03:58:38.317Z,77.74
2023-04-01T03:59:38.327Z,77.84
2023-04-01T04:00:38.281Z,77.74
2023-04-01T04:01:38.295Z,77.98
2023-04-01T04:02:38.356Z,77.98
2023-04-01T04:03:38.444Z,77.98
2023-04-01T04:04:38.309Z,77.78
2023-04-01T04:05:38.247Z,77.44
2023-04-01T04:06:38.223Z,77.13
2023-04-01T04:07:38.229Z,77.33
2023-04-01T04:08:38.211Z,77.44
2023-04-01T04:09:38.218Z,77.64
2023-04-01T04:10:38.184Z,77.84
2023-04-01T04:11:38.196Z,78.05
2023-04-01T04:12:38.179Z,77.88
2023-04-01T04:13:38.164Z,78.09
2023-04-01T04:14:38.141Z,78.19
2023-04-01T04:15:38.171Z,78.19
2023-04-01T04:16:38.119Z,78.09
2023-04-01T04:17:38.170Z,78.09
2023-04-01T04:18:38.099Z,77.98
2023-04-01T04:19:38.137Z,77.78
2023-04-01T04:20:38.076Z,77.78
2023-04-01T04:21:38.089Z,77.88
2023-04-01T04:22:38.068Z,78.09
2023-04-01T04:23:38.060Z,77.88
2023-04-01T04:24:38.037Z,77.58
2023-04-01T04:25:38.059Z,77.68
2023-04-01T04:26:38.003Z,77.88
2023-04-01T04:27:38.030Z,77.88
2023-04-01T04:28:37.983Z,78.19
2023-04-01T04:29:38.009Z,78.19
2023-04-01T04:30:37.982Z,77.68
2023-04-01T04:31:37.989Z,77.78
2023-04-01T04:32:37.899Z,77.47
2023-04-01T04:33:37.946Z,77.58
2023-04-01T04:34:37.881Z,77.68
2023-04-01T04:35:37.967Z,77.37
2023-04-01T04:36:37.916Z,77.26
2023-04-01T04:37:37.917Z,77.26
2023-04-01T04:38:37.830Z,77.17
2023-04-01T04:39:37.893Z,76.92
2023-04-01T04:40:37.855Z,76.82
2023-04-01T04:41:37.871Z,76.72
2023-04-01T04:42:37.800Z,77.03
2023-04-01T04:43:37.797Z,77.06
2023-04-01T04:44:37.783Z,77.37
2023-04-01T04:45:37.780Z,77.98
2023-04-01T04:46:37.846Z,78.29
2023-04-01T04:47:37.770Z,78.09
2023-04-01T04:48:37.721Z,78.39
2023-04-01T04:49:37.719Z,78.81
2023-04-01T04:50:37.718Z,78.91
2023-04-01T04:51:37.710Z,78.50
2023-04-01T04:52:37.670Z,79.01
2023-04-01T04:53:37.691Z,79.22
2023-04-01T04:54:37.676Z,79.42
2023-04-01T04:55:37.673Z,79.15
2023-04-01T04:56:37.636Z,79.25
2023-04-01T04:57:37.644Z,79.56
2023-04-01T04:58:37.600Z,79.77
2023-04-01T04:59:37.629Z,79.36
2023-04-01T05:00:37.586Z,79.66
2023-04-01T05:01:37.665Z,79.56
2023-04-01T05:02:37.635Z,80.07
2023-04-01T05:03:37.582Z,79.87
2023-04-01T05:04:37.558Z,79.77
2023-04-01T05:05:37.561Z,80.18
2023-04-01T05:06:37.519Z,79.87
2023-04-01T05:07:37.556Z,79.66
2023-04-01T05:08:37.503Z,79.66
2023-04-01T05:09:37.515Z,79.66
2023-04-01T05:10:37.473Z,79.77
2023-04-01T05:11:37.493Z,79.97
2023-04-01T05:12:37.451Z,80.18
2023-04-01T05:13:37.461Z,80.28
2023-04-01T05:14:37.459Z,80.07
2023-04-01T05:15:37.434Z,79.97
2023-04-01T05:16:37.462Z,80.38
2023-04-01T05:17:37.489Z,80.38
2023-04-01T05:18:37.396Z,80.49
2023-04-01T05:19:37.389Z,80.58
2023-04-01T05:20:37.362Z,80.38
2023-04-01T05:21:37.353Z,80.18
2023-04-01T05:22:37.356Z,80.18
2023-04-01T05:23:37.339Z,80.07
2023-04-01T05:24:37.367Z,80.07
2023-04-01T05:25:37.321Z,80.18
2023-04-01T05:26:37.328Z,80.18
2023-04-01T05:27:37.286Z,80.49
2023-04-01T05:28:37.306Z,80.07
2023-04-01T05:29:37.263Z,80.18
2023-04-01T05:30:37.311Z,80.49
2023-04-01T05:31:37.251Z,80.79
2023-04-01T05:32:37.280Z,80.49
2023-04-01T05:33:37.223Z,80.58
2023-04-01T05:34:37.253Z,80.18
2023-04-01T05:35:37.234Z,79.97
2023-04-01T05:36:37.231Z,80.07
2023-04-01T05:37:37.196Z,80.07
2023-04-01T05:38:37.213Z,80.07
2023-04-01T05:39:37.156Z,80.07
2023-04-01T05:40:37.222Z,80.35
2023-04-01T05:41:37.143Z,80.38
2023-04-01T05:42:38.286Z,80.55
2023-04-01T05:43:37.120Z,80.38
2023-04-01T05:44:37.151Z,80.28
2023-04-01T05:45:37.094Z,80.24
2023-04-01T05:46:37.218Z,80.28
2023-04-01T05:47:37.105Z,80.35
2023-04-01T05:48:37.101Z,80.38
2023-04-01T05:49:37.071Z,80.38
2023-04-01T05:50:37.070Z,80.28
2023-04-01T05:51:37.032Z,80.49
2023-04-01T05:52:37.034Z,80.49
2023-04-01T05:53:37.010Z,80.18
2023-04-01T05:54:37.017Z,80.28
2023-04-01T05:55:37.004Z,80.38
2023-04-01T05:56:37.005Z,80.24
2023-04-01T05:57:36.989Z,80.18
2023-04-01T05:58:36.980Z,80.35
2023-04-01T05:59:36.945Z,80.38
2023-04-01T06:00:36.953Z,80.35
2023-04-01T06:01:36.927Z,79.93
2023-04-01T06:02:36.964Z,80.24
2023-04-01T06:03:37.081Z,80.24
2023-04-01T06:04:36.938Z,80.45
2023-04-01T06:05:36.893Z,81.57
2023-04-01T06:06:36.894Z,82.03
2023-04-01T06:07:36.853Z,82.54
2023-04-01T06:08:36.866Z,82.54
2023-04-01T06:09:36.844Z,82.54
2023-04-01T06:10:36.838Z,82.84
2023-04-01T06:11:36.843Z,83.26
2023-04-01T06:12:36.832Z,83.05
2023-04-01T06:13:36.792Z,83.67
2023-04-01T06:14:36.809Z,82.84
2023-04-01T06:15:36.782Z,82.95
2023-04-01T06:16:36.831Z,82.54
2023-04-01T06:17:36.770Z,82.23
2023-04-01T06:18:36.772Z,81.92
2023-04-01T06:19:36.723Z,82.23
2023-04-01T06:20:36.726Z,81.68
2023-04-01T06:21:36.699Z,81.57
2023-04-01T06:22:36.742Z,81.48
2023-04-01T06:23:36.752Z,81.06
2023-04-01T06:24:36.711Z,80.96
2023-04-01T06:25:36.655Z,81.06
2023-04-01T06:26:36.681Z,81.16
2023-04-01T06:27:36.648Z,80.96
2023-04-01T06:28:36.647Z,81.06
2023-04-01T06:29:36.624Z,80.35
2023-04-01T06:30:36.636Z,80.31
2023-04-01T06:31:36.632Z,80.10
2023-04-01T06:32:36.662Z,79.38
2023-04-01T06:33:36.595Z,79.04
2023-04-01T06:34:36.578Z,78.83
2023-04-01T06:35:36.879Z,79.24
2023-04-01T06:36:36.612Z,78.94
2023-04-01T06:37:36.570Z,79.04
2023-04-01T06:38:36.537Z,78.94
2023-04-01T06:39:36.518Z,78.83
2023-04-01T06:40:36.517Z,78.83
2023-04-01T06:41:36.508Z,78.83
2023-04-01T06:42:36.497Z,78.80
2023-04-01T06:43:36.480Z,78.49
2023-04-01T06:44:36.486Z,78.70
2023-04-01T06:45:36.805Z,78.59
2023-04-01T06:46:36.456Z,78.19
2023-04-01T06:47:36.443Z,77.36
2023-04-01T06:48:36.430Z,77.77
2023-04-01T06:49:36.423Z,77.26
2023-04-01T06:50:36.423Z,77.47
2023-04-01T06:51:36.393Z,77.36
2023-04-01T06:52:36.400Z,77.57
2023-04-01T06:53:36.410Z,77.16
2023-04-01T06:54:36.378Z,77.06
2023-04-01T06:55:36.335Z,76.85
2023-04-01T06:56:36.341Z,76.54
2023-04-01T06:57:36.325Z,75.93
2023-04-01T06:58:36.365Z,76.03
2023-04-01T06:59:36.321Z,76.14
2023-04-01T07:00:36.324Z,76.14
2023-04-01T07:01:36.301Z,76.10
2023-04-01T07:02:36.300Z,76.20
2023-04-01T07:03:36.272Z,76.10
2023-04-01T07:04:36.292Z,76.10
2023-04-01T07:05:36.257Z,75.28
2023-04-01T07:06:36.253Z,74.66
2023-04-01T07:07:36.225Z,74.26
2023-04-01T07:08:36.213Z,75.07
2023-04-01T07:09:36.184Z,74.46
2023-04-01T07:10:36.201Z,74.15
2023-04-01T07:11:36.179Z,74.15
2023-04-01T07:12:36.278Z,73.74
2023-04-01T07:13:36.149Z,73.64
2023-04-01T07:14:36.165Z,73.44
2023-04-01T07:15:36.148Z,73.20
2023-04-01T07:16:36.157Z,73.10
2023-04-01T07:17:36.127Z,72.89
2023-04-01T07:18:36.117Z,72.48
2023-04-01T07:19:36.076Z,72.07
2023-04-01T07:20:36.115Z,72.17
2023-04-01T07:21:36.061Z,72.17
2023-04-01T07:22:36.059Z,72.17
2023-04-01T07:23:36.038Z,72.28
2023-04-01T07:24:36.039Z,72.69
2023-04-01T07:25:36.162Z,72.17
2023-04-01T07:26:36.117Z,72.38
2023-04-01T07:27:36.011Z,72.17
2023-04-01T07:28:36.065Z,71.66
2023-04-01T07:29:34.957Z,71.97
2023-04-01T07:30:36.003Z,72.17
2023-04-01T07:31:36.023Z,71.77
2023-04-01T07:32:36.441Z,71.56
2023-04-01T07:33:35.940Z,71.56
2023-04-01T07:34:35.931Z,71.97
2023-04-01T07:35:35.901Z,72.14
2023-04-01T07:36:35.910Z,71.12
2023-04-01T07:37:35.887Z,71.83
2023-04-01T07:38:35.953Z,71.53
2023-04-01T07:39:35.883Z,71.01
2023-04-01T07:40:35.874Z,70.91
2023-04-01T07:41:35.872Z,70.91
2023-04-01T07:42:35.840Z,70.71
2023-04-01T07:43:35.830Z,70.50
2023-04-01T07:44:35.824Z,70.40
2023-04-01T07:45:36.154Z,70.40
2023-04-01T07:46:35.834Z,70.20
2023-04-01T07:47:35.814Z,70.29
2023-04-01T07:48:35.775Z,70.91
2023-04-01T07:49:35.758Z,70.61
2023-04-01T07:50:35.766Z,70.67
2023-04-01T07:51:35.828Z,70.78
2023-04-01T07:52:35.746Z,70.29
2023-04-01T07:53:35.715Z,70.40
2023-04-01T07:54:35.742Z,70.50
2023-04-01T07:55:36.026Z,70.78
2023-04-01T07:56:35.688Z,70.20
2023-04-01T07:57:35.664Z,70.61
2023-04-01T07:58:35.667Z,70.47
2023-04-01T07:59:35.642Z,70.29
2023-04-01T08:00:35.672Z,70.71
2023-04-01T08:01:35.623Z,70.81
2023-04-01T08:02:35.688Z,70.71
2023-04-01T08:03:35.718Z,70.50
2023-04-01T08:04:35.695Z,70.29
2023-04-01T08:05:35.793Z,70.37
2023-04-01T08:06:35.596Z,70.37
2023-04-01T08:07:35.581Z,69.85
2023-04-01T08:08:35.557Z,69.75
2023-04-01T08:09:35.543Z,69.45
2023-04-01T08:10:35.581Z,69.34
2023-04-01T08:11:35.543Z,69.75
2023-04-01T08:12:35.524Z,69.96
2023-04-01T08:13:35.504Z,69.85
2023-04-01T08:14:35.493Z,70.06
2023-04-01T08:15:35.700Z,70.06
2023-04-01T08:16:35.638Z,69.24
2023-04-01T08:17:35.460Z,69.14
2023-04-01T08:18:35.463Z,69.24
2023-04-01T08:19:35.424Z,68.93
2023-04-01T08:20:35.432Z,69.14
2023-04-01T08:21:35.397Z,68.73
2023-04-01T08:22:35.416Z,68.84
2023-04-01T08:23:35.378Z,68.70
2023-04-01T08:24:46.602Z,67.98
2023-04-01T08:25:35.593Z,68.39
2023-04-01T08:26:35.385Z,68.19
2023-04-01T08:27:35.329Z,68.08
2023-04-01T08:28:35.363Z,67.98
2023-04-01T08:29:35.322Z,67.88
2023-04-01T08:30:35.319Z,67.88
2023-04-01T08:31:35.343Z,68.49
2023-04-01T08:32:35.345Z,68.60
2023-04-01T08:33:35.270Z,68.39
2023-04-01T08:34:35.274Z,68.39
2023-04-01T08:35:37.007Z,68.80
2023-04-01T08:36:35.305Z,68.80
2023-04-01T08:37:35.219Z,68.60
2023-04-01T08:38:35.256Z,68.87
2023-04-01T08:39:35.265Z,68.46
2023-04-01T08:40:35.226Z,67.95
2023-04-01T08:41:35.220Z,68.16
2023-04-01T08:42:35.192Z,67.37
2023-04-01T08:43:35.166Z,67.68
2023-04-01T08:44:35.165Z,67.78
2023-04-01T08:45:35.406Z,67.57
2023-04-01T08:46:35.180Z,67.88
2023-04-01T08:47:35.161Z,67.78
2023-04-01T08:48:35.133Z,67.16
2023-04-01T08:49:35.089Z,67.57
2023-04-01T08:50:35.124Z,67.71
2023-04-01T08:51:35.080Z,67.91
2023-04-01T08:52:35.080Z,68.01
2023-04-01T08:53:35.051Z,68.39
2023-04-01T08:54:35.069Z,68.39
2023-04-01T08:55:35.306Z,67.57
2023-04-01T08:56:35.074Z,67.88
2023-04-01T08:57:35.064Z,67.57
2023-04-01T08:58:35.036Z,67.68
2023-04-01T08:59:34.985Z,67.57
2023-04-01T09:00:35.025Z,67.57
2023-04-01T09:01:34.968Z,67.78
2023-04-01T09:02:35.079Z,67.68
2023-04-01T09:03:35.137Z,67.85
2023-04-01T09:04:35.040Z,67.34
2023-04-01T09:05:35.151Z,66.83
2023-04-01T09:06:34.933Z,67.03
2023-04-01T09:07:34.894Z,67.47
2023-04-01T09:08:34.920Z,68.39
2023-04-01T09:09:34.884Z,68.70
2023-04-01T09:10:34.890Z,69.11
2023-04-01T09:11:34.884Z,69.42
2023-04-01T09:12:34.917Z,69.62
2023-04-01T09:13:34.842Z,70.00
2023-04-01T09:14:34.867Z,69.48
2023-04-01T09:15:35.107Z,70.10
2023-04-01T09:16:34.949Z,69.18
2023-04-01T09:17:34.831Z,69.79
2023-04-01T09:18:34.805Z,69.69
2023-04-01T09:19:34.772Z,70.81
2023-04-01T09:20:34.786Z,70.43
2023-04-01T09:21:34.745Z,69.52
2023-04-01T09:22:34.798Z,70.84
2023-04-01T09:23:34.724Z,71.08
2023-04-01T09:24:34.740Z,71.08
2023-04-01T09:25:35.099Z,71.39
2023-04-01T09:26:34.713Z,71.97
2023-04-01T09:27:34.682Z,71.59
2023-04-01T09:28:34.687Z,71.80
2023-04-01T09:29:34.708Z,71.19
2023-04-01T09:30:34.696Z,70.26
2023-04-01T09:31:34.670Z,70.57
2023-04-01T09:32:34.693Z,71.70
2023-04-01T09:33:34.617Z,71.80
2023-04-01T09:34:34.645Z,72.21
2023-04-01T09:35:34.958Z,71.39
2023-04-01T09:36:34.593Z,71.80
2023-04-01T09:37:34.597Z,71.49
2023-04-01T09:38:34.568Z,71.49
2023-04-01T09:39:34.608Z,71.70
2023-04-01T09:40:34.544Z,71.59
2023-04-01T09:41:34.562Z,72.31
2023-04-01T09:42:34.529Z,71.90
2023-04-01T09:43:34.604Z,72.41
2023-04-01T09:44:34.501Z,71.49
2023-04-01T09:45:34.692Z,71.39
2023-04-01T09:46:34.511Z,71.49
2023-04-01T09:47:34.515Z,71.80
2023-04-01T09:48:34.478Z,72.31
2023-04-01T09:49:34.484Z,70.98
2023-04-01T09:50:34.441Z,71.59
2023-04-01T09:51:34.448Z,71.90
2023-04-01T09:52:34.428Z,71.49
2023-04-01T09:53:34.441Z,71.36
2023-04-01T09:54:34.400Z,71.56
2023-04-01T09:55:34.746Z,72.17
2023-04-01T09:56:34.420Z,72.41
2023-04-01T09:57:34.430Z,72.52
2023-04-01T09:58:34.350Z,73.54
2023-04-01T09:59:34.376Z,74.56
2023-04-01T10:00:34.338Z,75.38
2023-04-01T10:01:34.424Z,76.64
2023-04-01T10:02:34.358Z,75.21
2023-04-01T10:03:34.337Z,75.62
2023-04-01T10:04:34.304Z,76.54
2023-04-01T10:05:34.540Z,78.17
2023-04-01T10:06:34.290Z,76.68
2023-04-01T10:07:34.286Z,76.57
2023-04-01T10:08:34.236Z,78.31
2023-04-01T10:09:34.262Z,78.35
2023-04-01T10:10:34.210Z,79.58
2023-04-01T10:11:34.239Z,80.09
2023-04-01T10:12:34.229Z,78.56
2023-04-01T10:13:34.195Z,78.59
2023-04-01T10:14:34.177Z,79.41
2023-04-01T10:15:34.544Z,79.93
2023-04-01T10:16:34.243Z,80.85
2023-04-01T10:17:34.205Z,80.33
2023-04-01T10:18:34.134Z,80.33
2023-04-01T10:19:34.198Z,81.05
2023-04-01T10:20:34.099Z,81.05
2023-04-01T10:21:34.120Z,81.05
2023-04-01T10:22:34.091Z,81.57
2023-04-01T10:23:34.105Z,81.67
2023-04-01T10:24:34.088Z,83.31
2023-04-01T10:25:34.306Z,82.49
2023-04-01T10:26:34.104Z,83.20
2023-04-01T10:27:34.066Z,83.41
2023-04-01T10:28:34.020Z,84.03
2023-04-01T10:29:34.040Z,84.53
2023-04-01T10:30:34.008Z,84.12
2023-04-01T10:31:34.151Z,84.44
2023-04-01T10:32:34.599Z,84.53
2023-04-01T10:33:33.983Z,86.24
2023-04-01T10:34:33.953Z,85.42
2023-04-01T10:35:34.202Z,85.72
2023-04-01T10:36:33.926Z,85.52
2023-04-01T10:37:33.952Z,87.47
2023-04-01T10:38:33.917Z,88.49
2023-04-01T10:39:33.924Z,86.44
2023-04-01T10:40:33.888Z,88.39
2023-04-01T10:41:33.909Z,87.20
2023-04-01T10:42:33.868Z,87.41
2023-04-01T10:43:33.879Z,87.71
2023-04-01T10:44:33.838Z,88.33
2023-04-01T10:45:34.070Z,88.84
2023-04-01T10:46:33.946Z,89.45
2023-04-01T10:47:33.845Z,89.76
2023-04-01T10:48:33.793Z,89.04
2023-04-01T10:49:33.801Z,88.02
2023-04-01T10:50:33.794Z,87.61
2023-04-01T10:51:33.777Z,88.68
2023-04-01T10:52:33.777Z,88.98
2023-04-01T10:53:33.757Z,89.45
2023-04-01T10:54:33.781Z,90.28
2023-04-01T10:55:33.962Z,88.88
2023-04-01T10:56:33.714Z,89.09
2023-04-01T10:57:33.989Z,88.88
2023-04-01T10:58:33.701Z,87.76
2023-04-01T10:59:33.792Z,88.88
2023-04-01T11:00:33.687Z,88.98
2023-04-01T11:01:33.737Z,89.39
2023-04-01T11:02:33.691Z,89.60
2023-04-01T11:03:33.832Z,90.93
2023-04-01T11:04:33.626Z,91.03
2023-04-01T11:05:33.887Z,89.19
2023-04-01T11:06:33.607Z,89.90
2023-04-01T11:07:33.626Z,90.32
2023-04-01T11:08:33.584Z,90.05
2023-04-01T11:09:33.585Z,90.97
2023-04-01T11:10:33.615Z,91.55
2023-04-01T11:11:33.586Z,91.18
2023-04-01T11:12:33.536Z,91.28
2023-04-01T11:13:33.602Z,92.31
2023-04-01T11:14:33.525Z,92.16
2023-04-01T11:15:33.792Z,92.68
2023-04-01T11:16:33.577Z,93.19
2023-04-01T11:17:33.608Z,92.16
2023-04-01T11:18:33.470Z,91.24
2023-04-01T11:19:33.501Z,91.96
2023-04-01T11:20:33.448Z,92.36
2023-04-01T11:21:33.454Z,92.27
2023-04-01T11:22:33.433Z,91.59
2023-04-01T11:23:33.438Z,91.38
2023-04-01T11:24:33.426Z,91.18
2023-04-01T11:25:33.604Z,92.10
2023-04-01T11:26:33.414Z,92.00
2023-04-01T11:27:33.387Z,91.59
2023-04-01T11:28:33.359Z,92.21
2023-04-01T11:29:33.381Z,88.72
2023-04-01T11:30:33.376Z,89.03
2023-04-01T11:31:33.415Z,89.03
2023-04-01T11:32:33.337Z,88.82
2023-04-01T11:33:33.325Z,88.41
2023-04-01T11:34:33.321Z,88.06
2023-04-01T11:35:33.529Z,86.63
2023-04-01T11:36:33.325Z,85.39
2023-04-01T11:37:33.280Z,85.91
2023-04-01T11:38:33.265Z,86.63
2023-04-01T11:39:33.273Z,87.04
2023-04-01T11:40:33.236Z,87.76
2023-04-01T11:41:33.262Z,86.42
2023-04-01T11:42:33.257Z,87.65
2023-04-01T11:43:34.059Z,88.98
2023-04-01T11:44:33.194Z,88.43
2023-04-01T11:45:33.332Z,88.43
2023-04-01T11:46:33.231Z,88.12
2023-04-01T11:47:33.258Z,86.90
2023-04-01T11:48:33.144Z,86.69
2023-04-01T11:49:33.170Z,87.14
2023-04-01T11:50:33.126Z,87.85
2023-04-01T11:51:33.162Z,89.19
2023-04-01T11:52:33.112Z,86.90
2023-04-01T11:53:33.132Z,86.79
2023-04-01T11:54:33.101Z,87.10
2023-04-01T11:55:33.373Z,85.19
2023-04-01T11:56:33.063Z,86.42
2023-04-01T11:57:33.105Z,87.55
2023-04-01T11:58:33.035Z,86.83
2023-04-01T11:59:33.042Z,87.14
2023-04-01T12:00:33.014Z,89.09
2023-04-01T12:01:33.035Z,88.00
2023-04-01T12:02:33.089Z,88.62
2023-04-01T12:03:33.181Z,89.43
2023-04-01T12:04:33.003Z,89.43
2023-04-01T12:05:33.106Z,89.39
2023-04-01T12:06:32.952Z,89.39
2023-04-01T12:07:32.968Z,89.29
2023-04-01T12:08:32.931Z,88.74
2023-04-01T12:09:32.933Z,89.25
2023-04-01T12:10:32.923Z,89.62
2023-04-01T12:11:32.923Z,89.83
2023-04-01T12:12:32.890Z,88.70
2023-04-01T12:13:32.939Z,90.03
2023-04-01T12:14:32.866Z,88.39
2023-04-01T12:15:33.012Z,87.88
2023-04-01T12:16:33.002Z,88.70
2023-04-01T12:17:32.896Z,88.70
2023-04-01T12:18:32.822Z,87.06
2023-04-01T12:19:32.850Z,87.92
2023-04-01T12:20:32.798Z,89.31
2023-04-01T12:21:32.827Z,87.16
2023-04-01T12:22:33.966Z,87.51
2023-04-01T12:23:32.798Z,88.29
2023-04-01T12:24:32.885Z,86.90
2023-04-01T12:25:32.987Z,86.90
2023-04-01T12:26:32.733Z,87.92
2023-04-01T12:27:32.740Z,88.02
2023-04-01T12:28:32.729Z,87.61
2023-04-01T12:29:32.764Z,86.90
2023-04-01T12:30:32.692Z,86.18
2023-04-01T12:31:32.720Z,87.20
2023-04-01T12:32:32.673Z,87.41
2023-04-01T12:33:32.679Z,86.69
2023-04-01T12:34:32.672Z,87.41
2023-04-01T12:35:33.050Z,88.64
2023-04-01T12:36:32.631Z,88.02
2023-04-01T12:37:32.645Z,89.04
2023-04-01T12:38:32.605Z,88.74
2023-04-01T12:39:32.616Z,87.61
2023-04-01T12:40:32.889Z,88.33
2023-04-01T12:41:32.590Z,88.53
2023-04-01T12:42:32.561Z,88.43
2023-04-01T12:43:32.569Z,88.43
2023-04-01T12:44:32.540Z,87.92
2023-04-01T12:45:32.901Z,87.61
2023-04-01T12:46:32.625Z,87.10
2023-04-01T12:47:32.566Z,88.43
2023-04-01T12:48:32.491Z,89.04
2023-04-01T12:49:32.504Z,89.04
2023-04-01T12:50:32.484Z,89.36
2023-04-01T12:51:32.480Z,90.07
2023-04-01T12:52:32.450Z,89.25